Baie-Des-Sables, Canada
Current Conditions -  °F | °C
As of 5:00 AM on Monday 26 Jan 2015 (Local Time) from CYYY Reporting Station
Scattered Clouds Scattered Clouds  
Wind Chill: -27°   Ceiling: Unl
Heat Index: -4°   Visibility: 15mi
Dew Point: -13°   Wind: 20mph
Humidity: 65%   Direction: 290°WNW
Pressure: 30.02"   Gusts: 26mph
Location:  48.72°N, 67.87°W
Report Text: CYYY 261000Z 29017G23KT 15SM SCT020 M20/M25 A3002 RMK SC4 SLP172
Loading
Personal Weather Stations






























Interactive Weather Map New forecast layout! Learn more

10-Day Weather Forecast

Advertisements
Track Severe Weather on mobile